sensor_id;sensor_type;location;lat;lon;timestamp;P1;durP1;ratioP1;P2;durP2;ratioP2
58376;SDS011;58852;43.460;19.812;2023-04-03T00:02:12;4.43;;;2.58;;
58376;SDS011;58852;43.460;19.812;2023-04-03T00:04:38;3.85;;;2.85;;
58376;SDS011;58852;43.460;19.812;2023-04-03T00:07:04;3.92;;;2.75;;
58376;SDS011;58852;43.460;19.812;2023-04-03T00:09:30;5.18;;;2.83;;
58376;SDS011;58852;43.460;19.812;2023-04-03T00:11:57;3.97;;;2.72;;
58376;SDS011;58852;43.460;19.812;2023-04-03T00:14:22;4.80;;;3.28;;
58376;SDS011;58852;43.460;19.812;2023-04-03T00:16:49;5.18;;;3.03;;
58376;SDS011;58852;43.460;19.812;2023-04-03T00:19:15;4.95;;;3.60;;
58376;SDS011;58852;43.460;19.812;2023-04-03T00:21:41;4.25;;;2.80;;
58376;SDS011;58852;43.460;19.812;2023-04-03T00:24:07;4.18;;;2.50;;
58376;SDS011;58852;43.460;19.812;2023-04-03T00:26:33;5.63;;;3.42;;
58376;SDS011;58852;43.460;19.812;2023-04-03T00:28:59;4.65;;;2.50;;
58376;SDS011;58852;43.460;19.812;2023-04-03T00:31:25;4.65;;;2.92;;
58376;SDS011;58852;43.460;19.812;2023-04-03T00:33:51;4.20;;;2.83;;
58376;SDS011;58852;43.460;19.812;2023-04-03T00:36:17;5.50;;;2.90;;
58376;SDS011;58852;43.460;19.812;2023-04-03T00:38:43;3.55;;;2.50;;
58376;SDS011;58852;43.460;19.812;2023-04-03T00:41:09;4.53;;;2.47;;
58376;SDS011;58852;43.460;19.812;2023-04-03T00:43:35;6.60;;;3.05;;
58376;SDS011;58852;43.460;19.812;2023-04-03T00:46:01;3.90;;;2.58;;
58376;SDS011;58852;43.460;19.812;2023-04-03T00:48:31;3.92;;;2.72;;
58376;SDS011;58852;43.460;19.812;2023-04-03T00:50:58;4.03;;;2.55;;
58376;SDS011;58852;43.460;19.812;2023-04-03T00:53:26;5.07;;;3.30;;
58376;SDS011;58852;43.460;19.812;2023-04-03T00:55:53;3.50;;;2.50;;
58376;SDS011;58852;43.460;19.812;2023-04-03T00:58:20;5.28;;;2.72;;
58376;SDS011;58852;43.460;19.812;2023-04-03T01:00:50;4.10;;;2.30;;
58376;SDS011;58852;43.460;19.812;2023-04-03T01:03:21;4.32;;;2.70;;
58376;SDS011;58852;43.460;19.812;2023-04-03T01:05:47;5.07;;;2.33;;
58376;SDS011;58852;43.460;19.812;2023-04-03T01:08:13;3.95;;;2.63;;
58376;SDS011;58852;43.460;19.812;2023-04-03T01:13:19;3.88;;;2.50;;
58376;SDS011;58852;43.460;19.812;2023-04-03T01:15:46;3.40;;;2.13;;
58376;SDS011;58852;43.460;19.812;2023-04-03T01:18:12;4.60;;;2.65;;
58376;SDS011;58852;43.460;19.812;2023-04-03T01:23:25;3.55;;;2.50;;
58376;SDS011;58852;43.460;19.812;2023-04-03T01:25:54;3.60;;;2.33;;
58376;SDS011;58852;43.460;19.812;2023-04-03T01:28:24;4.45;;;2.83;;
58376;SDS011;58852;43.460;19.812;2023-04-03T01:30:53;3.58;;;2.45;;
58376;SDS011;58852;43.460;19.812;2023-04-03T01:33:22;3.40;;;2.35;;
58376;SDS011;58852;43.460;19.812;2023-04-03T01:35:48;3.92;;;2.65;;
58376;SDS011;58852;43.460;19.812;2023-04-03T01:38:14;5.88;;;3.00;;
58376;SDS011;58852;43.460;19.812;2023-04-03T01:40:40;4.20;;;2.50;;
58376;SDS011;58852;43.460;19.812;2023-04-03T01:43:06;3.35;;;2.28;;
58376;SDS011;58852;43.460;19.812;2023-04-03T01:45:33;5.22;;;3.10;;
58376;SDS011;58852;43.460;19.812;2023-04-03T01:47:59;4.07;;;2.95;;
58376;SDS011;58852;43.460;19.812;2023-04-03T01:50:24;4.43;;;2.30;;
58376;SDS011;58852;43.460;19.812;2023-04-03T01:55:26;3.60;;;2.50;;
58376;SDS011;58852;43.460;19.812;2023-04-03T01:57:52;3.45;;;2.00;;
58376;SDS011;58852;43.460;19.812;2023-04-03T02:00:18;3.65;;;2.45;;
58376;SDS011;58852;43.460;19.812;2023-04-03T02:02:44;4.35;;;2.15;;
58376;SDS011;58852;43.460;19.812;2023-04-03T02:05:11;3.42;;;2.20;;
58376;SDS011;58852;43.460;19.812;2023-04-03T02:07:37;3.13;;;2.40;;
58376;SDS011;58852;43.460;19.812;2023-04-03T02:10:03;5.18;;;2.55;;
58376;SDS011;58852;43.460;19.812;2023-04-03T02:12:29;3.75;;;2.22;;
58376;SDS011;58852;43.460;19.812;2023-04-03T02:14:55;3.05;;;2.13;;
58376;SDS011;58852;43.460;19.812;2023-04-03T02:17:21;3.78;;;2.28;;
58376;SDS011;58852;43.460;19.812;2023-04-03T02:19:47;4.25;;;2.50;;
58376;SDS011;58852;43.460;19.812;2023-04-03T02:22:13;3.53;;;2.50;;
58376;SDS011;58852;43.460;19.812;2023-04-03T02:24:39;5.15;;;2.85;;
58376;SDS011;58852;43.460;19.812;2023-04-03T02:27:06;4.07;;;2.80;;
58376;SDS011;58852;43.460;19.812;2023-04-03T02:29:32;4.35;;;2.78;;
58376;SDS011;58852;43.460;19.812;2023-04-03T02:31:58;3.45;;;2.30;;
58376;SDS011;58852;43.460;19.812;2023-04-03T02:39:32;4.97;;;2.83;;
58376;SDS011;58852;43.460;19.812;2023-04-03T02:41:58;4.05;;;2.65;;
58376;SDS011;58852;43.460;19.812;2023-04-03T02:44:24;4.47;;;2.75;;
58376;SDS011;58852;43.460;19.812;2023-04-03T02:46:50;3.63;;;2.35;;
58376;SDS011;58852;43.460;19.812;2023-04-03T02:49:16;3.95;;;2.75;;
58376;SDS011;58852;43.460;19.812;2023-04-03T02:51:42;3.47;;;2.72;;
58376;SDS011;58852;43.460;19.812;2023-04-03T02:54:08;4.15;;;2.85;;
58376;SDS011;58852;43.460;19.812;2023-04-03T02:56:34;4.03;;;2.70;;
58376;SDS011;58852;43.460;19.812;2023-04-03T02:59:00;4.60;;;2.83;;
58376;SDS011;58852;43.460;19.812;2023-04-03T03:01:27;4.63;;;2.58;;
58376;SDS011;58852;43.460;19.812;2023-04-03T03:03:56;4.35;;;2.63;;
58376;SDS011;58852;43.460;19.812;2023-04-03T03:06:22;4.05;;;2.50;;
58376;SDS011;58852;43.460;19.812;2023-04-03T03:08:48;4.68;;;3.10;;
58376;SDS011;58852;43.460;19.812;2023-04-03T03:11:14;3.90;;;2.50;;
58376;SDS011;58852;43.460;19.812;2023-04-03T03:13:40;5.90;;;2.95;;
58376;SDS011;58852;43.460;19.812;2023-04-03T03:16:06;5.15;;;3.13;;
58376;SDS011;58852;43.460;19.812;2023-04-03T03:18:32;4.97;;;3.00;;
58376;SDS011;58852;43.460;19.812;2023-04-03T03:20:59;5.15;;;3.00;;
58376;SDS011;58852;43.460;19.812;2023-04-03T03:23:26;4.28;;;3.10;;
58376;SDS011;58852;43.460;19.812;2023-04-03T03:25:56;7.90;;;3.88;;
58376;SDS011;58852;43.460;19.812;2023-04-03T03:28:23;4.78;;;2.83;;
58376;SDS011;58852;43.460;19.812;2023-04-03T03:30:49;5.18;;;3.22;;
58376;SDS011;58852;43.460;19.812;2023-04-03T03:33:15;5.30;;;3.25;;
58376;SDS011;58852;43.460;19.812;2023-04-03T03:41:00;5.55;;;3.72;;
58376;SDS011;58852;43.460;19.812;2023-04-03T03:43:26;4.68;;;3.03;;
58376;SDS011;58852;43.460;19.812;2023-04-03T03:45:52;4.43;;;3.25;;
58376;SDS011;58852;43.460;19.812;2023-04-03T03:48:18;4.03;;;3.00;;
58376;SDS011;58852;43.460;19.812;2023-04-03T03:50:44;5.50;;;3.10;;
58376;SDS011;58852;43.460;19.812;2023-04-03T03:53:10;4.82;;;3.50;;
58376;SDS011;58852;43.460;19.812;2023-04-03T03:55:36;4.68;;;3.42;;
58376;SDS011;58852;43.460;19.812;2023-04-03T03:58:02;3.88;;;3.22;;
58376;SDS011;58852;43.460;19.812;2023-04-03T04:00:28;4.68;;;3.58;;
58376;SDS011;58852;43.460;19.812;2023-04-03T04:02:55;5.22;;;3.08;;
58376;SDS011;58852;43.460;19.812;2023-04-03T04:05:21;4.80;;;3.53;;
58376;SDS011;58852;43.460;19.812;2023-04-03T04:07:47;5.22;;;3.60;;
58376;SDS011;58852;43.460;19.812;2023-04-03T04:10:14;5.20;;;3.67;;
58376;SDS011;58852;43.460;19.812;2023-04-03T04:12:40;4.22;;;3.53;;
58376;SDS011;58852;43.460;19.812;2023-04-03T04:15:06;4.72;;;3.47;;
58376;SDS011;58852;43.460;19.812;2023-04-03T04:17:32;4.88;;;3.80;;
58376;SDS011;58852;43.460;19.812;2023-04-03T04:20:00;4.38;;;3.53;;
58376;SDS011;58852;43.460;19.812;2023-04-03T04:22:26;5.30;;;3.92;;
58376;SDS011;58852;43.460;19.812;2023-04-03T04:24:52;4.57;;;3.20;;
58376;SDS011;58852;43.460;19.812;2023-04-03T04:27:18;3.78;;;3.08;;
58376;SDS011;58852;43.460;19.812;2023-04-03T04:29:44;5.20;;;3.45;;
58376;SDS011;58852;43.460;19.812;2023-04-03T04:32:10;5.03;;;3.80;;
58376;SDS011;58852;43.460;19.812;2023-04-03T04:34:36;3.60;;;3.05;;
58376;SDS011;58852;43.460;19.812;2023-04-03T04:37:02;5.45;;;4.10;;
58376;SDS011;58852;43.460;19.812;2023-04-03T04:39:28;6.25;;;3.47;;
58376;SDS011;58852;43.460;19.812;2023-04-03T04:41:54;5.00;;;3.35;;
58376;SDS011;58852;43.460;19.812;2023-04-03T04:44:20;5.68;;;4.15;;
58376;SDS011;58852;43.460;19.812;2023-04-03T04:46:46;6.85;;;4.00;;
58376;SDS011;58852;43.460;19.812;2023-04-03T04:49:12;7.78;;;3.67;;
58376;SDS011;58852;43.460;19.812;2023-04-03T04:51:38;6.22;;;4.28;;
58376;SDS011;58852;43.460;19.812;2023-04-03T04:54:04;6.35;;;4.28;;
58376;SDS011;58852;43.460;19.812;2023-04-03T04:56:30;5.85;;;4.05;;
58376;SDS011;58852;43.460;19.812;2023-04-03T04:58:56;5.88;;;4.05;;
58376;SDS011;58852;43.460;19.812;2023-04-03T05:01:22;5.03;;;3.80;;
58376;SDS011;58852;43.460;19.812;2023-04-03T05:03:48;4.88;;;3.20;;
58376;SDS011;58852;43.460;19.812;2023-04-03T05:06:14;5.13;;;3.30;;
58376;SDS011;58852;43.460;19.812;2023-04-03T05:08:40;5.07;;;3.50;;
58376;SDS011;58852;43.460;19.812;2023-04-03T05:11:06;4.95;;;4.30;;
58376;SDS011;58852;43.460;19.812;2023-04-03T05:13:32;4.85;;;3.60;;
58376;SDS011;58852;43.460;19.812;2023-04-03T05:15:58;5.60;;;4.47;;
58376;SDS011;58852;43.460;19.812;2023-04-03T05:18:24;6.15;;;4.00;;
58376;SDS011;58852;43.460;19.812;2023-04-03T05:20:50;5.70;;;3.95;;
58376;SDS011;58852;43.460;19.812;2023-04-03T05:23:17;4.50;;;3.75;;
58376;SDS011;58852;43.460;19.812;2023-04-03T05:25:43;5.75;;;4.07;;
58376;SDS011;58852;43.460;19.812;2023-04-03T05:28:10;5.22;;;4.28;;
58376;SDS011;58852;43.460;19.812;2023-04-03T05:30:36;5.30;;;4.20;;
58376;SDS011;58852;43.460;19.812;2023-04-03T05:33:02;6.53;;;4.38;;
58376;SDS011;58852;43.460;19.812;2023-04-03T05:35:28;4.88;;;4.03;;
58376;SDS011;58852;43.460;19.812;2023-04-03T05:37:54;6.20;;;4.50;;
58376;SDS011;58852;43.460;19.812;2023-04-03T05:40:20;6.05;;;3.95;;
58376;SDS011;58852;43.460;19.812;2023-04-03T05:42:46;5.50;;;3.83;;
58376;SDS011;58852;43.460;19.812;2023-04-03T05:45:12;6.68;;;4.30;;
58376;SDS011;58852;43.460;19.812;2023-04-03T05:47:38;4.32;;;3.42;;
58376;SDS011;58852;43.460;19.812;2023-04-03T05:50:04;5.22;;;3.53;;
58376;SDS011;58852;43.460;19.812;2023-04-03T05:52:38;5.47;;;3.95;;
58376;SDS011;58852;43.460;19.812;2023-04-03T05:55:06;4.90;;;3.80;;
58376;SDS011;58852;43.460;19.812;2023-04-03T05:57:32;4.82;;;3.40;;
58376;SDS011;58852;43.460;19.812;2023-04-03T05:59:58;4.70;;;3.40;;
58376;SDS011;58852;43.460;19.812;2023-04-03T06:02:24;5.25;;;3.40;;
58376;SDS011;58852;43.460;19.812;2023-04-03T06:04:51;5.30;;;3.78;;
58376;SDS011;58852;43.460;19.812;2023-04-03T06:07:20;4.50;;;3.00;;
58376;SDS011;58852;43.460;19.812;2023-04-03T06:09:47;5.85;;;3.72;;
58376;SDS011;58852;43.460;19.812;2023-04-03T06:12:13;4.35;;;2.80;;
58376;SDS011;58852;43.460;19.812;2023-04-03T06:14:39;4.22;;;3.05;;
58376;SDS011;58852;43.460;19.812;2023-04-03T06:17:06;4.70;;;2.90;;
58376;SDS011;58852;43.460;19.812;2023-04-03T06:19:36;3.97;;;2.92;;
58376;SDS011;58852;43.460;19.812;2023-04-03T06:22:02;5.65;;;3.63;;
58376;SDS011;58852;43.460;19.812;2023-04-03T06:24:30;4.32;;;3.15;;
58376;SDS011;58852;43.460;19.812;2023-04-03T06:26:56;4.53;;;3.40;;
58376;SDS011;58852;43.460;19.812;2023-04-03T06:29:23;4.78;;;3.47;;
58376;SDS011;58852;43.460;19.812;2023-04-03T06:31:49;3.88;;;2.92;;
58376;SDS011;58852;43.460;19.812;2023-04-03T06:34:15;5.68;;;3.92;;
58376;SDS011;58852;43.460;19.812;2023-04-03T06:36:43;5.75;;;3.83;;
58376;SDS011;58852;43.460;19.812;2023-04-03T06:39:13;5.50;;;3.97;;
58376;SDS011;58852;43.460;19.812;2023-04-03T06:41:40;4.57;;;3.25;;
58376;SDS011;58852;43.460;19.812;2023-04-03T06:44:06;6.10;;;3.78;;
58376;SDS011;58852;43.460;19.812;2023-04-03T06:46:36;4.93;;;3.65;;
58376;SDS011;58852;43.460;19.812;2023-04-03T06:49:02;4.85;;;3.35;;
58376;SDS011;58852;43.460;19.812;2023-04-03T06:51:29;9.00;;;4.10;;
58376;SDS011;58852;43.460;19.812;2023-04-03T06:53:56;4.80;;;3.35;;
58376;SDS011;58852;43.460;19.812;2023-04-03T06:56:22;4.55;;;3.35;;
58376;SDS011;58852;43.460;19.812;2023-04-03T06:58:48;5.00;;;4.10;;
58376;SDS011;58852;43.460;19.812;2023-04-03T07:01:16;5.88;;;4.95;;
58376;SDS011;58852;43.460;19.812;2023-04-03T07:03:44;6.00;;;4.60;;
58376;SDS011;58852;43.460;19.812;2023-04-03T07:06:11;5.85;;;4.20;;
58376;SDS011;58852;43.460;19.812;2023-04-03T07:08:38;6.75;;;3.70;;
58376;SDS011;58852;43.460;19.812;2023-04-03T07:11:04;8.05;;;3.80;;
58376;SDS011;58852;43.460;19.812;2023-04-03T07:13:31;6.38;;;3.38;;
58376;SDS011;58852;43.460;19.812;2023-04-03T07:15:57;6.55;;;4.10;;
58376;SDS011;58852;43.460;19.812;2023-04-03T07:18:24;10.32;;;3.72;;
58376;SDS011;58852;43.460;19.812;2023-04-03T07:20:50;8.20;;;3.70;;
58376;SDS011;58852;43.460;19.812;2023-04-03T07:25:52;6.75;;;3.63;;
58376;SDS011;58852;43.460;19.812;2023-04-03T07:28:19;7.00;;;4.28;;
58376;SDS011;58852;43.460;19.812;2023-04-03T07:30:51;15.32;;;5.40;;
58376;SDS011;58852;43.460;19.812;2023-04-03T07:33:18;19.55;;;4.78;;
58376;SDS011;58852;43.460;19.812;2023-04-03T07:35:45;8.55;;;4.00;;
58376;SDS011;58852;43.460;19.812;2023-04-03T07:38:14;8.40;;;3.97;;
58376;SDS011;58852;43.460;19.812;2023-04-03T07:40:44;7.10;;;3.83;;
58376;SDS011;58852;43.460;19.812;2023-04-03T07:43:11;7.30;;;3.67;;
58376;SDS011;58852;43.460;19.812;2023-04-03T07:45:37;7.32;;;3.80;;
58376;SDS011;58852;43.460;19.812;2023-04-03T07:48:03;8.75;;;3.58;;
58376;SDS011;58852;43.460;19.812;2023-04-03T07:50:30;6.10;;;3.40;;
58376;SDS011;58852;43.460;19.812;2023-04-03T07:52:57;8.45;;;3.97;;
58376;SDS011;58852;43.460;19.812;2023-04-03T07:55:23;8.13;;;3.88;;
58376;SDS011;58852;43.460;19.812;2023-04-03T07:57:49;10.70;;;3.72;;
58376;SDS011;58852;43.460;19.812;2023-04-03T08:00:15;10.20;;;4.53;;
58376;SDS011;58852;43.460;19.812;2023-04-03T08:02:42;24.35;;;3.92;;
58376;SDS011;58852;43.460;19.812;2023-04-03T08:05:09;10.85;;;5.57;;
58376;SDS011;58852;43.460;19.812;2023-04-03T08:07:37;12.32;;;4.57;;
58376;SDS011;58852;43.460;19.812;2023-04-03T08:10:03;6.38;;;3.90;;
58376;SDS011;58852;43.460;19.812;2023-04-03T08:12:29;13.18;;;4.00;;
58376;SDS011;58852;43.460;19.812;2023-04-03T08:14:56;6.70;;;4.63;;
58376;SDS011;58852;43.460;19.812;2023-04-03T08:17:23;6.68;;;3.97;;
58376;SDS011;58852;43.460;19.812;2023-04-03T08:19:49;11.70;;;4.50;;
58376;SDS011;58852;43.460;19.812;2023-04-03T08:22:15;12.55;;;4.60;;
58376;SDS011;58852;43.460;19.812;2023-04-03T08:24:41;10.23;;;4.15;;
58376;SDS011;58852;43.460;19.812;2023-04-03T08:27:07;17.67;;;4.43;;
58376;SDS011;58852;43.460;19.812;2023-04-03T08:29:35;9.23;;;4.35;;
58376;SDS011;58852;43.460;19.812;2023-04-03T08:32:05;8.10;;;3.47;;
58376;SDS011;58852;43.460;19.812;2023-04-03T08:34:31;6.05;;;4.18;;
58376;SDS011;58852;43.460;19.812;2023-04-03T08:37:00;13.38;;;4.32;;
58376;SDS011;58852;43.460;19.812;2023-04-03T08:39:26;12.60;;;3.85;;
58376;SDS011;58852;43.460;19.812;2023-04-03T08:41:52;9.90;;;4.30;;
58376;SDS011;58852;43.460;19.812;2023-04-03T08:49:59;13.57;;;4.28;;
58376;SDS011;58852;43.460;19.812;2023-04-03T08:55:25;12.80;;;3.90;;
58376;SDS011;58852;43.460;19.812;2023-04-03T08:58:02;10.43;;;4.38;;
58376;SDS011;58852;43.460;19.812;2023-04-03T09:00:30;7.97;;;4.28;;
58376;SDS011;58852;43.460;19.812;2023-04-03T09:03:02;7.38;;;3.92;;
58376;SDS011;58852;43.460;19.812;2023-04-03T09:05:39;13.60;;;3.13;;
58376;SDS011;58852;43.460;19.812;2023-04-03T09:08:12;9.07;;;3.80;;
58376;SDS011;58852;43.460;19.812;2023-04-03T09:10:40;7.57;;;3.50;;
58376;SDS011;58852;43.460;19.812;2023-04-03T09:13:13;9.52;;;3.78;;
58376;SDS011;58852;43.460;19.812;2023-04-03T09:15:45;6.60;;;3.38;;
58376;SDS011;58852;43.460;19.812;2023-04-03T09:18:21;8.32;;;3.20;;
58376;SDS011;58852;43.460;19.812;2023-04-03T09:23:34;8.07;;;3.25;;
58376;SDS011;58852;43.460;19.812;2023-04-03T09:26:13;11.00;;;3.47;;
58376;SDS011;58852;43.460;19.812;2023-04-03T09:28:40;6.53;;;3.50;;
58376;SDS011;58852;43.460;19.812;2023-04-03T09:31:16;10.98;;;4.63;;
58376;SDS011;58852;43.460;19.812;2023-04-03T09:33:45;5.80;;;3.10;;
58376;SDS011;58852;43.460;19.812;2023-04-03T09:36:37;5.43;;;3.08;;
58376;SDS011;58852;43.460;19.812;2023-04-03T09:39:04;5.38;;;3.85;;
58376;SDS011;58852;43.460;19.812;2023-04-03T09:41:30;4.93;;;3.05;;
58376;SDS011;58852;43.460;19.812;2023-04-03T09:43:58;7.00;;;3.30;;
58376;SDS011;58852;43.460;19.812;2023-04-03T09:46:28;8.73;;;3.50;;
58376;SDS011;58852;43.460;19.812;2023-04-03T09:48:58;7.75;;;3.88;;
58376;SDS011;58852;43.460;19.812;2023-04-03T09:51:31;4.45;;;2.90;;
58376;SDS011;58852;43.460;19.812;2023-04-03T09:53:57;7.00;;;3.40;;
58376;SDS011;58852;43.460;19.812;2023-04-03T09:56:25;5.28;;;3.13;;
58376;SDS011;58852;43.460;19.812;2023-04-03T10:01:57;6.68;;;3.20;;
58376;SDS011;58852;43.460;19.812;2023-04-03T10:04:23;9.90;;;3.70;;
58376;SDS011;58852;43.460;19.812;2023-04-03T10:06:54;12.35;;;3.72;;
58376;SDS011;58852;43.460;19.812;2023-04-03T10:20:09;5.43;;;3.28;;
58376;SDS011;58852;43.460;19.812;2023-04-03T10:28:20;9.40;;;3.42;;
58376;SDS011;58852;43.460;19.812;2023-04-03T10:30:55;7.05;;;3.10;;
58376;SDS011;58852;43.460;19.812;2023-04-03T10:33:44;10.40;;;3.90;;
58376;SDS011;58852;43.460;19.812;2023-04-03T10:41:54;7.22;;;3.13;;
58376;SDS011;58852;43.460;19.812;2023-04-03T10:44:34;6.18;;;2.90;;
58376;SDS011;58852;43.460;19.812;2023-04-03T10:58:32;11.45;;;7.55;;
58376;SDS011;58852;43.460;19.812;2023-04-03T11:01:08;9.82;;;7.10;;
58376;SDS011;58852;43.460;19.812;2023-04-03T11:03:41;10.13;;;6.80;;
58376;SDS011;58852;43.460;19.812;2023-04-03T11:06:11;8.38;;;5.05;;
58376;SDS011;58852;43.460;19.812;2023-04-03T11:08:48;6.15;;;4.80;;
58376;SDS011;58852;43.460;19.812;2023-04-03T11:11:17;7.75;;;5.00;;
58376;SDS011;58852;43.460;19.812;2023-04-03T11:13:49;6.97;;;4.68;;
58376;SDS011;58852;43.460;19.812;2023-04-03T11:16:20;10.48;;;5.10;;
58376;SDS011;58852;43.460;19.812;2023-04-03T11:18:49;9.55;;;4.25;;
58376;SDS011;58852;43.460;19.812;2023-04-03T11:21:22;5.30;;;4.38;;
58376;SDS011;58852;43.460;19.812;2023-04-03T11:23:53;7.80;;;5.00;;
58376;SDS011;58852;43.460;19.812;2023-04-03T11:26:24;6.85;;;4.13;;
58376;SDS011;58852;43.460;19.812;2023-04-03T11:28:59;5.88;;;4.35;;
58376;SDS011;58852;43.460;19.812;2023-04-03T11:37:22;6.82;;;3.90;;
58376;SDS011;58852;43.460;19.812;2023-04-03T11:39:52;8.10;;;4.15;;
58376;SDS011;58852;43.460;19.812;2023-04-03T11:50:42;6.05;;;3.65;;
58376;SDS011;58852;43.460;19.812;2023-04-03T12:02:34;5.28;;;3.10;;
58376;SDS011;58852;43.460;19.812;2023-04-03T12:07:41;4.68;;;3.35;;
58376;SDS011;58852;43.460;19.812;2023-04-03T12:10:15;4.90;;;3.08;;
58376;SDS011;58852;43.460;19.812;2023-04-03T12:12:55;4.38;;;3.05;;
58376;SDS011;58852;43.460;19.812;2023-04-03T12:15:23;4.57;;;3.47;;
58376;SDS011;58852;43.460;19.812;2023-04-03T12:17:50;5.97;;;3.30;;
58376;SDS011;58852;43.460;19.812;2023-04-03T12:25:49;4.57;;;3.03;;
58376;SDS011;58852;43.460;19.812;2023-04-03T12:28:16;5.15;;;3.22;;
58376;SDS011;58852;43.460;19.812;2023-04-03T12:30:42;5.93;;;2.90;;
58376;SDS011;58852;43.460;19.812;2023-04-03T12:33:13;5.68;;;3.10;;
58376;SDS011;58852;43.460;19.812;2023-04-03T12:38:26;4.95;;;2.83;;
58376;SDS011;58852;43.460;19.812;2023-04-03T12:46:33;4.50;;;2.78;;
58376;SDS011;58852;43.460;19.812;2023-04-03T12:49:02;4.07;;;2.67;;
58376;SDS011;58852;43.460;19.812;2023-04-03T12:51:42;4.00;;;2.33;;
58376;SDS011;58852;43.460;19.812;2023-04-03T12:59:40;4.95;;;2.97;;
58376;SDS011;58852;43.460;19.812;2023-04-03T13:02:22;4.22;;;2.72;;
58376;SDS011;58852;43.460;19.812;2023-04-03T13:04:49;8.77;;;2.65;;
58376;SDS011;58852;43.460;19.812;2023-04-03T13:07:19;7.93;;;3.03;;
58376;SDS011;58852;43.460;19.812;2023-04-03T13:09:58;4.22;;;2.47;;
58376;SDS011;58852;43.460;19.812;2023-04-03T13:12:24;5.53;;;2.83;;
58376;SDS011;58852;43.460;19.812;2023-04-03T13:14:52;5.53;;;2.50;;
58376;SDS011;58852;43.460;19.812;2023-04-03T13:17:19;4.03;;;2.40;;
58376;SDS011;58852;43.460;19.812;2023-04-03T13:19:46;4.35;;;2.55;;
58376;SDS011;58852;43.460;19.812;2023-04-03T13:24:51;4.40;;;2.80;;
58376;SDS011;58852;43.460;19.812;2023-04-03T13:27:20;8.65;;;6.68;;
58376;SDS011;58852;43.460;19.812;2023-04-03T13:29:50;12.32;;;4.05;;
58376;SDS011;58852;43.460;19.812;2023-04-03T13:32:18;6.65;;;4.20;;
58376;SDS011;58852;43.460;19.812;2023-04-03T13:34:45;4.93;;;3.20;;
58376;SDS011;58852;43.460;19.812;2023-04-03T13:39:58;11.45;;;3.22;;
58376;SDS011;58852;43.460;19.812;2023-04-03T13:42:26;5.38;;;3.13;;
58376;SDS011;58852;43.460;19.812;2023-04-03T13:45:09;4.95;;;3.15;;
58376;SDS011;58852;43.460;19.812;2023-04-03T13:47:39;8.27;;;3.55;;
58376;SDS011;58852;43.460;19.812;2023-04-03T13:53:01;4.60;;;2.78;;
58376;SDS011;58852;43.460;19.812;2023-04-03T13:55:52;7.50;;;2.97;;
58376;SDS011;58852;43.460;19.812;2023-04-03T13:58:22;6.82;;;3.53;;
58376;SDS011;58852;43.460;19.812;2023-04-03T14:03:31;4.00;;;2.35;;
58376;SDS011;58852;43.460;19.812;2023-04-03T14:06:00;6.50;;;2.65;;
58376;SDS011;58852;43.460;19.812;2023-04-03T14:08:26;6.53;;;3.10;;
58376;SDS011;58852;43.460;19.812;2023-04-03T14:10:53;7.85;;;3.78;;
58376;SDS011;58852;43.460;19.812;2023-04-03T14:13:20;5.65;;;3.75;;
58376;SDS011;58852;43.460;19.812;2023-04-03T14:15:47;9.95;;;4.03;;
58376;SDS011;58852;43.460;19.812;2023-04-03T14:18:14;9.07;;;3.47;;
58376;SDS011;58852;43.460;19.812;2023-04-03T14:20:41;6.70;;;3.45;;
58376;SDS011;58852;43.460;19.812;2023-04-03T14:23:07;9.25;;;3.58;;
58376;SDS011;58852;43.460;19.812;2023-04-03T14:25:34;9.20;;;3.47;;
58376;SDS011;58852;43.460;19.812;2023-04-03T14:28:00;4.60;;;2.58;;
58376;SDS011;58852;43.460;19.812;2023-04-03T14:30:28;7.18;;;3.05;;
58376;SDS011;58852;43.460;19.812;2023-04-03T14:32:54;15.38;;;4.47;;
58376;SDS011;58852;43.460;19.812;2023-04-03T14:35:21;4.97;;;2.70;;
58376;SDS011;58852;43.460;19.812;2023-04-03T14:37:47;11.55;;;3.28;;
58376;SDS011;58852;43.460;19.812;2023-04-03T14:40:15;7.38;;;3.67;;
58376;SDS011;58852;43.460;19.812;2023-04-03T14:42:41;9.32;;;2.88;;
58376;SDS011;58852;43.460;19.812;2023-04-03T14:45:09;8.73;;;3.20;;
58376;SDS011;58852;43.460;19.812;2023-04-03T14:47:37;5.93;;;3.45;;
58376;SDS011;58852;43.460;19.812;2023-04-03T14:50:06;8.77;;;2.80;;
58376;SDS011;58852;43.460;19.812;2023-04-03T14:52:34;7.07;;;3.33;;
58376;SDS011;58852;43.460;19.812;2023-04-03T14:55:02;9.80;;;2.90;;
58376;SDS011;58852;43.460;19.812;2023-04-03T14:57:28;8.50;;;2.80;;
58376;SDS011;58852;43.460;19.812;2023-04-03T14:59:55;12.52;;;2.92;;
58376;SDS011;58852;43.460;19.812;2023-04-03T15:02:24;8.80;;;3.38;;
58376;SDS011;58852;43.460;19.812;2023-04-03T15:04:51;10.00;;;2.97;;
58376;SDS011;58852;43.460;19.812;2023-04-03T15:07:17;8.55;;;3.30;;
58376;SDS011;58852;43.460;19.812;2023-04-03T15:09:45;11.15;;;3.53;;
58376;SDS011;58852;43.460;19.812;2023-04-03T15:12:11;9.95;;;3.72;;
58376;SDS011;58852;43.460;19.812;2023-04-03T15:14:38;15.90;;;3.63;;
58376;SDS011;58852;43.460;19.812;2023-04-03T15:17:04;10.38;;;3.58;;
58376;SDS011;58852;43.460;19.812;2023-04-03T15:19:32;5.22;;;3.03;;
58376;SDS011;58852;43.460;19.812;2023-04-03T15:22:01;10.90;;;3.25;;
58376;SDS011;58852;43.460;19.812;2023-04-03T15:24:27;6.97;;;2.83;;
58376;SDS011;58852;43.460;19.812;2023-04-03T15:26:54;7.65;;;2.85;;
58376;SDS011;58852;43.460;19.812;2023-04-03T15:29:20;7.03;;;2.80;;
58376;SDS011;58852;43.460;19.812;2023-04-03T15:31:46;4.80;;;2.67;;
58376;SDS011;58852;43.460;19.812;2023-04-03T15:34:14;8.45;;;2.60;;
58376;SDS011;58852;43.460;19.812;2023-04-03T15:36:41;7.05;;;3.33;;
58376;SDS011;58852;43.460;19.812;2023-04-03T15:39:07;6.70;;;2.67;;
58376;SDS011;58852;43.460;19.812;2023-04-03T15:41:33;6.60;;;2.95;;
58376;SDS011;58852;43.460;19.812;2023-04-03T15:43:59;5.10;;;2.90;;
58376;SDS011;58852;43.460;19.812;2023-04-03T15:46:25;7.03;;;3.00;;
58376;SDS011;58852;43.460;19.812;2023-04-03T15:48:51;7.40;;;2.92;;
58376;SDS011;58852;43.460;19.812;2023-04-03T15:51:17;4.13;;;2.65;;
58376;SDS011;58852;43.460;19.812;2023-04-03T15:53:43;4.65;;;2.70;;
58376;SDS011;58852;43.460;19.812;2023-04-03T15:56:10;5.95;;;2.80;;
58376;SDS011;58852;43.460;19.812;2023-04-03T15:58:36;9.10;;;3.17;;
58376;SDS011;58852;43.460;19.812;2023-04-03T16:01:02;6.53;;;2.95;;
58376;SDS011;58852;43.460;19.812;2023-04-03T16:03:28;4.68;;;2.60;;
58376;SDS011;58852;43.460;19.812;2023-04-03T16:05:54;4.43;;;2.85;;
58376;SDS011;58852;43.460;19.812;2023-04-03T16:08:21;4.32;;;2.78;;
58376;SDS011;58852;43.460;19.812;2023-04-03T16:10:48;7.20;;;2.88;;
58376;SDS011;58852;43.460;19.812;2023-04-03T16:13:14;6.43;;;2.90;;
58376;SDS011;58852;43.460;19.812;2023-04-03T16:15:40;4.20;;;2.30;;
58376;SDS011;58852;43.460;19.812;2023-04-03T16:18:07;5.40;;;2.90;;
58376;SDS011;58852;43.460;19.812;2023-04-03T16:20:34;3.47;;;2.42;;
58376;SDS011;58852;43.460;19.812;2023-04-03T16:23:00;3.00;;;2.03;;
58376;SDS011;58852;43.460;19.812;2023-04-03T16:25:27;3.85;;;2.53;;
58376;SDS011;58852;43.460;19.812;2023-04-03T16:27:53;3.13;;;2.10;;
58376;SDS011;58852;43.460;19.812;2023-04-03T16:30:19;7.43;;;3.35;;
58376;SDS011;58852;43.460;19.812;2023-04-03T16:32:45;3.40;;;1.90;;
58376;SDS011;58852;43.460;19.812;2023-04-03T16:35:11;5.00;;;2.63;;
58376;SDS011;58852;43.460;19.812;2023-04-03T16:37:38;4.78;;;2.53;;
58376;SDS011;58852;43.460;19.812;2023-04-03T16:40:05;4.10;;;2.50;;
58376;SDS011;58852;43.460;19.812;2023-04-03T16:42:31;10.07;;;3.28;;